Terminal Aerodrome Forecast
Issued by NWS Green Bay, WI

Home | Current Version | Previous Version | Graphics & Text | Print | Product List | Glossary On
Versions: 1 2 3 4 5 6 7 8 9 10 11 12 13 14 15 16 17 18 19 20 21 22 23 24 25 26 27 28 29 30 31 32 33 34 35 36 37 38 39 40 41 42 43 44
135
FTUS43 KGRB 180520
TAFGRB
TAF
KGRB 180520Z 1806/1906 18004KT P6SM FEW030
     FM180800 20004KT P6SM SCT045
     FM181300 21009KT P6SM SCT200
     FM182000 21009KT P6SM SCT035 BKN150
      TEMPO 1900/1904 3SM -TSRA BKN035CB
     FM190400 30006KT 6SM -SHRA OVC015=

USA.gov is the U.S. government's official web portal to all federal, state and local government web resources and services.